Time;durP1;ratioP1;P1;durP2;ratioP2;P2;SDS_P1;SDS_P2;PMS_P1;PMS_P2;Temp;Humidity;BMP_temperature;BMP_pressure;BME280_temperature;BME280_humidity;BME280_pressure;Samples;Min_cycle;Max_cycle;Signal;HPM_P1;HPM_P2
2021/12/15 00:02:04;;;;;;;1.70;1.30;;;;;;;-2.83;83.18;99757.28;102226;1313;73215;-24
2021/12/15 00:04:33;;;;;;;1.10;0.90;;;;;;;-2.98;83.86;99762.27;101869;1317;76066;-25
2021/12/15 00:07:02;;;;;;;2.30;1.60;;;;;;;-3.16;84.15;99773.38;102115;1317;74660;-24
2021/12/15 00:09:31;;;;;;;1.90;1.30;;;;;;;-3.23;84.53;99770.94;101855;1317;61931;-24
2021/12/15 00:12:03;;;;;;;2.10;1.70;;;;;;;-2.79;83.05;99775.41;102094;1317;61143;-24
2021/12/15 00:14:39;;;;;;;2.90;1.50;;;;;;;-2.77;82.32;99770.63;102343;1310;74879;-24
2021/12/15 00:17:12;;;;;;;3.00;1.90;;;;;;;-2.78;82.39;99765.21;102418;1314;76047;-24
2021/12/15 00:19:40;;;;;;;2.40;1.70;;;;;;;-3.03;83.29;99770.48;102647;1310;73429;-24
2021/12/15 00:22:09;;;;;;;2.60;2.10;;;;;;;-3.22;83.70;99779.41;102308;1310;61198;-24
2021/12/15 00:24:37;;;;;;;3.20;1.90;;;;;;;-3.24;84.29;99781.64;102121;1311;61926;-24
2021/12/15 00:27:06;;;;;;;3.10;1.90;;;;;;;-2.82;83.13;99783.62;102600;1311;75055;-24
2021/12/15 00:29:35;;;;;;;4.70;2.30;;;;;;;-2.75;83.22;99779.25;102560;1311;76166;-24
2021/12/15 00:32:11;;;;;;;2.80;2.40;;;;;;;-2.98;84.09;99782.81;102293;1317;73374;-25
2021/12/15 00:34:40;;;;;;;4.80;2.50;;;;;;;-3.28;85.27;99784.73;102460;1317;61185;-26
2021/12/15 00:37:09;;;;;;;4.70;2.20;;;;;;;-3.54;86.77;99784.05;102255;1317;61893;-27
2021/12/15 00:39:39;;;;;;;4.40;2.80;;;;;;;-3.22;86.03;99783.66;102086;1313;74718;-26
2021/12/15 00:42:07;;;;;;;4.10;2.40;;;;;;;-3.07;85.02;99782.27;102133;1314;76110;-23
2021/12/15 00:44:38;;;;;;;3.70;2.40;;;;;;;-3.05;84.64;99784.27;102186;1310;73043;-23
2021/12/15 00:47:07;;;;;;;3.80;2.30;;;;;;;-3.18;85.32;99782.93;102098;1313;61830;-23
2021/12/15 00:49:37;;;;;;;3.70;2.60;;;;;;;-3.45;86.13;99774.27;102465;1311;61162;-26
2021/12/15 00:52:06;;;;;;;2.80;2.00;;;;;;;-3.22;86.29;99771.09;102256;1310;75152;-25
2021/12/15 00:54:35;;;;;;;3.60;1.90;;;;;;;-2.77;84.00;99766.38;102312;1314;75041;-25
2021/12/15 00:57:04;;;;;;;3.10;2.20;;;;;;;-2.86;84.02;99763.11;102126;1314;74445;-23
2021/12/15 00:59:32;;;;;;;3.80;2.40;;;;;;;-3.01;84.29;99749.56;102281;1311;61195;-23
2021/12/15 01:02:01;;;;;;;4.00;2.70;;;;;;;-3.06;84.71;99748.61;102367;1310;61103;-23
2021/12/15 01:04:30;;;;;;;1.30;1.00;;;;;;;-3.38;85.80;99747.70;102261;1311;73986;-23
2021/12/15 01:07:01;;;;;;;5.80;2.80;;;;;;;-3.10;85.33;99741.70;102260;1310;75966;-24
2021/12/15 01:09:32;;;;;;;3.00;2.20;;;;;;;-2.81;83.94;99734.81;102323;1317;74543;-23
2021/12/15 01:20:22;;;;;;;3.30;2.30;;;;;;;-3.18;85.55;99721.77;102361;1314;75118;-23
2021/12/15 01:22:51;;;;;;;5.00;2.80;;;;;;;-2.92;84.45;99709.51;102296;1314;73471;-23
2021/12/15 01:25:35;;;;;;;5.40;3.10;;;;;;;-2.47;82.64;99712.00;102165;1314;61218;-23
2021/12/15 01:28:04;;;;;;;3.60;2.70;;;;;;;-2.49;82.47;99718.15;102159;1313;61126;-23
2021/12/15 01:30:34;;;;;;;2.90;2.10;;;;;;;-2.79;83.83;99715.59;102335;1311;74764;-23
2021/12/15 01:33:06;;;;;;;4.70;2.20;;;;;;;-2.98;84.39;99716.55;101948;1317;75986;-23
2021/12/15 01:35:36;;;;;;;5.10;3.70;;;;;;;-3.11;84.84;99722.52;101883;1313;74504;-23
2021/12/15 01:38:05;;;;;;;5.90;4.10;;;;;;;-3.43;86.37;99729.41;102201;1313;62945;-24
2021/12/15 01:40:36;;;;;;;5.10;3.20;;;;;;;-2.85;84.41;99726.55;102127;1314;62166;-23
2021/12/15 01:43:17;;;;;;;8.90;3.60;;;;;;;-2.89;83.84;99728.49;102147;1314;74999;-23
2021/12/15 01:49:06;;;;;;;8.30;4.20;;;;;;;-3.47;84.79;99729.80;102209;1314;72248;-24
2021/12/15 01:51:35;;;;;;;6.10;3.80;;;;;;;-3.65;85.30;99725.63;102273;1313;61220;-23
2021/12/15 01:54:04;;;;;;;6.00;4.00;;;;;;;-3.59;85.86;99730.30;102160;1313;61172;-23
2021/12/15 01:56:33;;;;;;;4.70;2.90;;;;;;;-3.30;84.41;99730.61;102128;1313;75642;-23
2021/12/15 01:59:03;;;;;;;3.70;2.60;;;;;;;-3.03;83.44;99731.73;102304;1319;75975;-24
2021/12/15 02:01:31;;;;;;;5.60;3.60;;;;;;;-3.28;83.32;99720.55;102072;1320;74460;-23
2021/12/15 02:04:00;;;;;;;6.40;4.60;;;;;;;-3.59;84.61;99725.37;102279;1314;61166;-23
2021/12/15 02:06:42;;;;;;;5.70;4.00;;;;;;;-3.55;84.78;99727.88;102231;1317;61126;-23
2021/12/15 02:09:12;;;;;;;3.90;3.10;;;;;;;-3.07;83.24;99726.03;102300;1314;72864;-23
2021/12/15 02:11:41;;;;;;;4.60;2.80;;;;;;;-2.93;81.55;99713.77;102313;1317;75094;-23
2021/12/15 02:14:11;;;;;;;3.30;2.60;;;;;;;-3.09;81.79;99710.60;102250;1313;73551;-24
2021/12/15 02:16:49;;;;;;;7.10;4.30;;;;;;;-3.28;82.17;99709.86;102019;1317;61107;-23
2021/12/15 02:19:18;;;;;;;4.10;2.00;;;;;;;-3.41;82.55;99702.73;102111;1314;61233;-23
2021/12/15 02:21:54;;;;;;;5.30;3.20;;;;;;;-3.64;83.45;99690.80;102151;1313;75374;-25
2021/12/15 02:24:22;;;;;;;5.60;3.30;;;;;;;-3.75;84.16;99680.09;102191;1311;76084;-23
2021/12/15 02:26:57;;;;;;;5.60;3.70;;;;;;;-3.39;83.10;99685.39;102241;1311;72478;-23
2021/12/15 02:29:29;;;;;;;3.00;1.90;;;;;;;-3.29;82.55;99681.52;102090;1313;61134;-24
2021/12/15 02:32:16;;;;;;;3.80;2.40;;;;;;;-3.27;82.30;99684.88;102136;1310;62020;-24
2021/12/15 02:37:05;;;;;;;4.00;2.90;;;;;;;-3.19;82.16;99690.53;102212;1314;74672;-23
2021/12/15 02:37:46;;;;;;;2.80;2.00;;;;;;;-3.54;83.73;99702.07;102644;1314;75087;-23
2021/12/15 02:40:17;;;;;;;4.90;3.20;;;;;;;-3.66;85.05;99712.40;102242;1310;72767;-23
2021/12/15 02:42:46;;;;;;;6.20;3.80;;;;;;;-3.25;84.04;99705.05;101881;1314;61164;-24
2021/12/15 02:45:18;;;;;;;7.00;3.90;;;;;;;-2.89;82.49;99701.48;102182;1311;62168;-23
2021/12/15 02:47:47;;;;;;;4.90;3.40;;;;;;;-3.12;83.44;99709.13;102359;1310;75466;-23
2021/12/15 02:50:24;;;;;;;6.20;4.30;;;;;;;-3.17;83.69;99720.08;102360;1314;74337;-23
2021/12/15 02:52:52;;;;;;;3.20;2.10;;;;;;;-3.54;84.86;99721.75;102363;1313;72320;-23
2021/12/15 02:55:21;;;;;;;4.90;3.70;;;;;;;-3.55;84.92;99717.00;102636;1311;61100;-23
2021/12/15 02:57:50;;;;;;;4.30;3.50;;;;;;;-3.52;84.85;99719.67;102646;1310;61073;-23
2021/12/15 03:00:22;;;;;;;7.50;4.00;;;;;;;-3.17;83.19;99726.52;102699;1311;74600;-23
2021/12/15 03:06:00;;;;;;;7.40;3.40;;;;;;;-3.30;83.38;99737.21;102394;1314;74552;-24
2021/12/15 03:09:02;;;;;;;5.70;3.60;;;;;;;-3.44;83.73;99743.86;102401;1314;61218;-23
2021/12/15 03:17:05;;;;;;;9.00;3.60;;;;;;;-3.23;81.66;99751.23;102275;1311;75296;-23
2021/12/15 03:19:34;;;;;;;4.30;3.30;;;;;;;-3.37;81.59;99754.81;102206;1311;74483;-23
2021/12/15 03:22:03;;;;;;;5.60;3.00;;;;;;;-3.29;81.84;99755.73;102215;1310;61097;-23
2021/12/15 03:24:32;;;;;;;4.70;3.00;;;;;;;-3.43;82.59;99748.44;102652;1314;62047;-24
2021/12/15 03:27:05;;;;;;;3.50;2.70;;;;;;;-3.68;83.89;99743.98;102640;1310;74314;-23
2021/12/15 03:37:43;;;;;;;2.90;2.40;;;;;;;-2.89;81.66;99741.40;102389;1310;61872;-23
2021/12/15 03:40:19;;;;;;;4.60;3.40;;;;;;;-3.09;82.66;99738.81;102272;1314;75688;-23
2021/12/15 03:42:57;;;;;;;6.30;4.10;;;;;;;-3.40;83.98;99738.88;102179;1313;76020;-23
2021/12/15 03:45:53;;;;;;;4.30;3.20;;;;;;;-3.42;84.94;99739.42;102297;1311;74200;-23
2021/12/15 03:48:24;;;;;;;5.60;3.10;;;;;;;-2.74;82.72;99731.50;102262;1317;61122;-23
2021/12/15 03:50:54;;;;;;;4.60;3.20;;;;;;;-2.84;82.48;99733.35;102208;1314;61942;-23
2021/12/15 03:53:24;;;;;;;8.30;4.30;;;;;;;-3.09;83.78;99742.21;102148;1314;75893;-23
2021/12/15 03:55:53;;;;;;;4.90;3.30;;;;;;;-3.29;85.04;99738.23;102339;1311;74427;-23
2021/12/15 03:58:23;;;;;;;4.90;3.10;;;;;;;-3.37;85.41;99741.56;102690;1310;73248;-23
2021/12/15 04:01:02;;;;;;;10.70;4.50;;;;;;;-3.38;85.95;99741.23;102673;1311;61359;-23
2021/12/15 04:03:39;;;;;;;4.80;3.10;;;;;;;-3.03;84.49;99742.11;102340;1310;61580;-23
2021/12/15 04:06:10;;;;;;;5.50;2.80;;;;;;;-2.54;82.71;99741.36;102300;1311;75580;-24
2021/12/15 04:08:40;;;;;;;4.80;3.40;;;;;;;-2.50;82.36;99742.50;102163;1317;74555;-24
2021/12/15 04:11:11;;;;;;;4.50;3.20;;;;;;;-2.92;83.53;99736.02;102351;1313;73145;-23
2021/12/15 04:13:46;;;;;;;6.10;3.70;;;;;;;-3.18;84.72;99735.71;102302;1314;61064;-24
2021/12/15 04:19:01;;;;;;;7.30;4.30;;;;;;;-3.21;85.49;99741.69;102360;1313;75581;-23
2021/12/15 04:21:31;;;;;;;5.40;3.30;;;;;;;-2.73;84.27;99742.17;102359;1315;76101;-23
2021/12/15 04:24:00;;;;;;;6.00;4.20;;;;;;;-2.62;83.09;99745.23;102689;1314;74407;-23
2021/12/15 04:26:28;;;;;;;9.70;5.40;;;;;;;-2.98;84.33;99743.74;102687;1310;61178;-23
2021/12/15 04:28:58;;;;;;;6.80;3.90;;;;;;;-3.41;86.08;99749.77;102340;1318;61152;-23
2021/12/15 04:31:28;;;;;;;3.30;2.60;;;;;;;-3.52;87.13;99754.66;102656;1310;74638;-24
2021/12/15 04:33:59;;;;;;;5.40;3.40;;;;;;;-3.09;85.42;99752.39;102228;1314;75811;-23
2021/12/15 04:36:31;;;;;;;5.10;3.30;;;;;;;-2.75;84.11;99751.55;102273;1314;74355;-23
2021/12/15 04:38:59;;;;;;;3.70;2.80;;;;;;;-3.03;84.38;99755.20;102309;1313;61220;-23
2021/12/15 04:41:29;;;;;;;4.40;2.80;;;;;;;-3.16;85.11;99759.80;102216;1311;61039;-25
2021/12/15 04:44:09;;;;;;;4.00;2.90;;;;;;;-3.41;86.27;99757.05;102216;1313;75463;-23
2021/12/15 04:46:42;;;;;;;5.00;3.00;;;;;;;-3.33;86.63;99762.05;102308;1313;76050;-23
2021/12/15 04:49:11;;;;;;;8.20;4.70;;;;;;;-2.94;85.30;99757.10;102258;1314;74423;-23
2021/12/15 04:51:39;;;;;;;5.00;3.70;;;;;;;-2.95;85.21;99759.67;102318;1313;61271;-24
2021/12/15 04:54:08;;;;;;;6.70;3.60;;;;;;;-2.91;85.56;99756.72;102325;1313;61833;-24
2021/12/15 04:56:36;;;;;;;8.00;4.00;;;;;;;-3.23;86.15;99754.80;102266;1314;75564;-23
2021/12/15 04:59:05;;;;;;;8.30;4.40;;;;;;;-3.24;86.43;99760.41;102272;1313;75219;-23
2021/12/15 05:01:34;;;;;;;13.00;6.40;;;;;;;-3.12;86.25;99758.55;102164;1316;74206;-23
2021/12/15 05:04:03;;;;;;;12.80;6.50;;;;;;;-2.89;84.52;99756.52;102227;1311;61215;-24
2021/12/15 05:06:34;;;;;;;11.10;5.70;;;;;;;-2.67;83.86;99759.77;102250;1314;62068;-25
2021/12/15 05:09:03;;;;;;;6.80;4.00;;;;;;;-2.92;84.05;99752.84;102106;1314;73096;-24
2021/12/15 05:11:32;;;;;;;8.90;4.50;;;;;;;-2.89;84.02;99753.80;102298;1313;76039;-25
2021/12/15 05:14:00;;;;;;;6.80;3.30;;;;;;;-3.12;84.92;99755.00;102212;1313;73138;-25
2021/12/15 05:16:34;;;;;;;;;;;;;;;-3.29;86.00;99755.89;102178;1314;61742;-22
2021/12/15 05:19:03;;;;;;;9.70;5.50;;;;;;;-2.96;85.29;99754.09;102143;1314;61303;-23
2021/12/15 05:21:32;;;;;;;8.90;5.10;;;;;;;-2.55;83.44;99759.41;102166;1316;75709;-23
2021/12/15 05:24:11;;;;;;;11.40;6.40;;;;;;;-2.74;83.62;99760.21;102192;1313;74357;-23
2021/12/15 05:26:40;;;;;;;7.00;3.50;;;;;;;-3.01;84.19;99758.41;102172;1313;74623;-23
2021/12/15 05:29:09;;;;;;;8.90;5.20;;;;;;;-3.26;84.83;99762.48;101952;1318;61300;-23
2021/12/15 05:31:39;;;;;;;7.50;4.80;;;;;;;-3.49;86.27;99764.64;102176;1316;61184;-23
2021/12/15 05:34:08;;;;;;;9.10;5.20;;;;;;;-3.30;85.73;99763.38;102632;1311;74120;-23
2021/12/15 05:36:38;;;;;;;10.70;6.20;;;;;;;-2.84;83.86;99763.60;102336;1313;75122;-23
2021/12/15 05:39:06;;;;;;;13.30;6.30;;;;;;;-2.96;83.36;99765.63;102637;1314;75108;-23
2021/12/15 05:41:34;;;;;;;10.10;5.10;;;;;;;-3.22;84.27;99769.73;102251;1314;61135;-23
2021/12/15 05:44:04;;;;;;;9.00;5.00;;;;;;;-3.39;85.04;99766.90;102707;1311;61172;-24
2021/12/15 05:46:33;;;;;;;10.40;5.60;;;;;;;-3.50;85.40;99759.89;102048;1315;454257;-23
2021/12/15 05:49:04;;;;;;;6.80;4.20;;;;;;;-3.12;84.72;99761.94;102229;1314;76513;-23
2021/12/15 05:51:33;;;;;;;7.90;4.40;;;;;;;-2.72;82.86;99766.29;102344;1318;74494;-23
2021/12/15 05:54:02;;;;;;;10.70;5.10;;;;;;;-2.80;82.53;99766.23;102232;1317;61185;-23
2021/12/15 05:56:31;;;;;;;6.30;3.60;;;;;;;-2.78;82.29;99768.78;102229;1317;61089;-23
2021/12/15 05:59:00;;;;;;;6.60;3.60;;;;;;;-2.93;82.92;99771.72;102336;1314;74733;-25
2021/12/15 06:01:28;;;;;;;13.00;5.30;;;;;;;-3.22;84.23;99780.60;102191;1317;73872;-23
2021/12/15 06:03:57;;;;;;;5.80;3.10;;;;;;;-3.30;84.64;99782.22;102096;1317;73513;-23
2021/12/15 06:06:28;;;;;;;8.30;4.50;;;;;;;-2.90;83.83;99788.65;102257;1310;61241;-23
2021/12/15 06:08:57;;;;;;;9.80;5.60;;;;;;;-2.47;81.95;99786.48;102367;1311;61132;-23
2021/12/15 06:11:26;;;;;;;8.50;4.50;;;;;;;-2.84;82.88;99790.45;102225;1317;74184;-23
2021/12/15 06:14:00;;;;;;;10.40;4.70;;;;;;;-2.82;83.37;99787.17;102712;1310;75911;-23
2021/12/15 06:16:35;;;;;;;7.30;4.40;;;;;;;-3.15;84.15;99790.35;102699;1310;74406;-26
2021/12/15 06:19:04;;;;;;;11.70;5.70;;;;;;;-3.41;85.37;99792.73;102338;1310;61120;-26
2021/12/15 06:21:52;;;;;;;8.80;5.30;;;;;;;-3.17;85.60;99792.24;102166;1314;62476;-28
2021/12/15 06:24:21;;;;;;;7.90;3.80;;;;;;;-2.67;83.66;99799.52;102370;1310;73111;-26
2021/12/15 06:26:50;;;;;;;11.30;5.70;;;;;;;-2.57;83.20;99809.24;102199;1314;76095;-23
2021/12/15 06:29:18;;;;;;;10.80;4.80;;;;;;;-2.75;83.41;99805.10;102103;1317;74435;-23
2021/12/15 06:31:47;;;;;;;8.00;4.90;;;;;;;-2.90;84.29;99807.86;102700;1310;61070;-27
2021/12/15 06:34:15;;;;;;;9.10;5.10;;;;;;;-3.25;85.10;99802.72;102321;1317;61178;-27
2021/12/15 06:36:44;;;;;;;10.90;4.90;;;;;;;-3.07;85.18;99808.94;102688;1310;75828;-25
2021/12/15 06:39:15;;;;;;;6.30;4.20;;;;;;;-2.89;83.39;99805.46;102735;1311;75094;-25
2021/12/15 06:41:43;;;;;;;10.50;5.30;;;;;;;-2.68;82.62;99805.34;102610;1314;74622;-25
2021/12/15 06:44:14;;;;;;;6.00;3.60;;;;;;;-2.80;83.05;99808.05;102331;1313;61701;-23
2021/12/15 07:00:29;;;;;;;8.60;4.50;;;;;;;-2.49;81.62;99828.16;102606;1310;61126;-23
2021/12/15 07:02:58;;;;;;;9.80;4.40;;;;;;;-2.86;82.81;99831.42;102647;1317;74552;-23
2021/12/15 07:05:27;;;;;;;10.20;5.80;;;;;;;-3.20;84.25;99836.98;102325;1314;76049;-23
2021/12/15 07:07:56;;;;;;;10.80;5.10;;;;;;;-3.33;85.35;99839.66;102356;1314;74748;-23
2021/12/15 07:10:27;;;;;;;9.50;4.60;;;;;;;-2.77;83.97;99837.75;102355;1313;61266;-23
2021/12/15 07:12:57;;;;;;;9.80;3.50;;;;;;;-2.11;81.97;99837.45;102302;1314;62368;-22
2021/12/15 07:15:25;;;;;;;11.30;5.40;;;;;;;-2.36;81.60;99836.65;102399;1317;76103;-23
2021/12/15 07:18:01;;;;;;;7.50;3.60;;;;;;;-2.58;82.16;99836.66;102649;1310;73267;-22
2021/12/15 07:23:00;;;;;;;14.50;6.70;;;;;;;-3.01;83.46;99832.65;102683;1314;61201;-23
2021/12/15 07:25:28;;;;;;;9.50;4.30;;;;;;;-2.84;84.13;99831.05;102353;1313;62190;-23
2021/12/15 07:27:57;;;;;;;10.90;5.30;;;;;;;-2.01;81.32;99830.46;102704;1310;75739;-22
2021/12/15 07:30:25;;;;;;;11.00;5.50;;;;;;;-1.68;79.46;99831.06;102641;1317;74795;-23
2021/12/15 07:32:54;;;;;;;9.10;4.70;;;;;;;-1.76;79.14;99824.91;102266;1317;73547;-23
2021/12/15 07:35:23;;;;;;;9.40;3.70;;;;;;;-2.09;79.63;99822.42;102692;1311;61080;-22
2021/12/15 07:37:52;;;;;;;8.30;4.30;;;;;;;-2.31;80.62;99822.80;102659;1314;61218;-23
2021/12/15 07:40:21;;;;;;;14.90;6.50;;;;;;;-2.55;81.41;99821.30;102714;1311;75626;-23
2021/12/15 07:43:03;;;;;;;11.40;4.50;;;;;;;-2.87;82.66;99817.85;102224;1311;76586;-23
2021/12/15 07:45:52;;;;;;;11.90;5.80;;;;;;;-2.24;80.84;99817.91;102319;1317;74419;-23
2021/12/15 07:48:23;;;;;;;16.60;6.60;;;;;;;-1.99;79.76;99819.56;102509;1317;61185;-23
2021/12/15 07:50:54;;;;;;;10.70;5.00;;;;;;;-2.10;79.72;99825.01;102363;1313;61204;-23
2021/12/15 07:53:22;;;;;;;15.50;4.30;;;;;;;-2.19;80.23;99829.41;102398;1317;75785;-23
2021/12/15 07:55:53;;;;;;;15.70;7.00;;;;;;;-2.44;81.23;99834.39;102679;1311;76122;-22
2021/12/15 07:58:22;;;;;;;11.90;4.60;;;;;;;-2.58;82.44;99837.83;102361;1313;74504;-23
2021/12/15 08:00:52;;;;;;;11.60;3.40;;;;;;;-2.57;82.61;99842.39;102339;1318;61342;-23
2021/12/15 08:03:21;;;;;;;8.10;3.90;;;;;;;-1.93;80.41;99839.36;102196;1317;62008;-23
2021/12/15 08:05:50;;;;;;;18.10;7.80;;;;;;;-1.56;78.26;99844.98;102203;1315;76820;-23
2021/12/15 08:08:19;;;;;;;16.40;6.70;;;;;;;-1.75;78.64;99838.35;102234;1318;75255;-23
2021/12/15 08:10:48;;;;;;;9.90;4.20;;;;;;;-1.84;79.28;99841.58;102283;1310;73039;-23
2021/12/15 08:13:17;;;;;;;16.20;6.70;;;;;;;-2.00;79.62;99841.17;102257;1314;61176;-24
2021/12/15 08:15:45;;;;;;;14.90;6.00;;;;;;;-2.41;81.24;99845.05;102130;1310;61981;-24
2021/12/15 08:18:14;;;;;;;10.10;4.10;;;;;;;-2.47;82.34;99853.48;102182;1311;74389;-24
2021/12/15 08:20:42;;;;;;;15.90;6.80;;;;;;;-2.05;80.93;99853.00;102133;1317;76034;-24
2021/12/15 08:23:11;;;;;;;15.00;6.10;;;;;;;-1.67;79.19;99856.60;102293;1317;73918;-24
2021/12/15 08:25:39;;;;;;;15.60;6.10;;;;;;;-1.66;78.97;99856.59;102282;1310;61132;-24
2021/12/15 08:28:09;;;;;;;12.90;5.30;;;;;;;-1.70;79.46;99860.56;102315;1311;61119;-24
2021/12/15 08:30:39;;;;;;;13.90;6.40;;;;;;;-1.96;79.45;99867.64;102296;1310;75952;-24
2021/12/15 08:33:09;;;;;;;20.70;6.80;;;;;;;-2.32;80.75;99868.73;102108;1317;75284;-24
2021/12/15 08:35:59;;;;;;;13.30;6.50;;;;;;;-2.49;81.72;99868.30;102154;1317;74559;-24
2021/12/15 08:38:29;;;;;;;10.90;5.00;;;;;;;-2.20;81.55;99869.39;102171;1317;61562;-24
2021/12/15 08:40:57;;;;;;;13.20;6.40;;;;;;;-1.59;78.96;99864.80;102153;1314;62120;-24
2021/12/15 08:43:25;;;;;;;8.10;4.10;;;;;;;-1.62;78.71;99860.77;102221;1314;74465;-24
2021/12/15 08:46:04;;;;;;;13.20;5.30;;;;;;;-1.60;78.62;99853.06;102203;1310;75818;-24
2021/12/15 08:48:34;;;;;;;11.40;5.20;;;;;;;-1.73;79.17;99850.75;102193;1317;73417;-24
2021/12/15 08:51:04;;;;;;;13.50;5.70;;;;;;;-1.89;79.78;99853.42;102165;1318;61155;-24
2021/12/15 08:53:33;;;;;;;14.30;5.70;;;;;;;-1.92;80.06;99852.61;102205;1316;62061;-24
2021/12/15 08:56:01;;;;;;;12.90;4.70;;;;;;;-1.93;80.75;99855.16;102223;1317;74198;-24
2021/12/15 08:58:30;;;;;;;10.20;5.20;;;;;;;-1.34;79.19;99848.99;102462;1314;76040;-24
2021/12/15 09:00:58;;;;;;;12.60;5.90;;;;;;;-1.11;78.36;99844.79;102299;1311;74406;-24
2021/12/15 09:03:28;;;;;;;12.90;6.70;;;;;;;-1.16;78.16;99834.51;102277;1313;61341;-24
2021/12/15 09:05:58;;;;;;;17.70;7.40;;;;;;;-1.48;79.10;99834.80;102477;1317;62368;-24
2021/12/15 09:08:37;;;;;;;15.00;5.50;;;;;;;-1.94;81.67;99833.77;102191;1314;75574;-22
2021/12/15 09:11:10;;;;;;;14.70;7.10;;;;;;;-2.02;81.84;99833.39;102187;1317;73214;-24
2021/12/15 09:13:40;;;;;;;14.80;7.10;;;;;;;-2.12;83.09;99837.79;102152;1317;73220;-24
2021/12/15 09:16:10;;;;;;;14.70;6.00;;;;;;;-1.77;81.97;99833.10;102201;1310;61077;-24
2021/12/15 09:18:41;;;;;;;8.80;4.90;;;;;;;-1.24;79.86;99834.98;102236;1319;61145;-25
2021/12/15 09:21:10;;;;;;;16.60;6.20;;;;;;;-1.12;79.38;99842.60;102331;1310;76368;-24
2021/12/15 09:23:39;;;;;;;12.80;6.20;;;;;;;-1.51;80.17;99844.22;102214;1320;75187;-24
2021/12/15 09:26:08;;;;;;;18.30;7.00;;;;;;;-1.92;82.27;99843.92;102635;1310;74478;-24
2021/12/15 09:28:36;;;;;;;17.90;8.30;;;;;;;-2.16;83.03;99846.88;102351;1317;61389;-24
2021/12/15 09:31:06;;;;;;;18.80;7.00;;;;;;;-2.29;83.87;99847.25;102253;1317;61103;-25
2021/12/15 09:33:42;;;;;;;17.00;7.60;;;;;;;-1.53;81.92;99839.31;102339;1317;74696;-24
2021/12/15 09:36:12;;;;;;;21.10;8.80;;;;;;;-1.47;80.94;99828.98;102309;1319;76246;-24
2021/12/15 09:38:41;;;;;;;15.30;7.10;;;;;;;-1.47;80.63;99822.50;102216;1317;74563;-24
2021/12/15 09:41:11;;;;;;;16.90;6.40;;;;;;;-1.76;82.14;99826.98;102160;1317;61526;-24
2021/12/15 09:43:41;;;;;;;15.50;7.50;;;;;;;-2.00;82.78;99831.46;102394;1318;61921;-25
2021/12/15 09:57:25;;;;;;;12.60;4.30;;;;;;;-1.53;81.28;99814.11;102085;1314;61764;-24
2021/12/15 10:02:56;;;;;;;12.90;6.50;;;;;;;-2.01;83.30;99817.19;102109;1317;76070;-24
2021/12/15 10:05:39;;;;;;;12.40;7.20;;;;;;;-1.70;82.79;99821.08;102267;1317;73884;-24
2021/12/15 10:11:42;;;;;;;11.90;6.20;;;;;;;-1.20;81.01;99820.44;102225;1316;61958;-24
2021/12/15 10:19:43;;;;;;;16.00;7.00;;;;;;;-1.88;84.24;99819.69;102175;1317;74209;-24
2021/12/15 10:22:42;;;;;;;14.80;7.60;;;;;;;-1.28;82.17;99818.04;102311;1319;61117;-22
2021/12/15 10:25:11;;;;;;;18.20;8.50;;;;;;;-0.92;80.68;99820.35;102343;1316;61180;-22
2021/12/15 10:28:04;;;;;;;15.60;6.80;;;;;;;-0.97;80.43;99810.76;102693;1317;75593;-22
2021/12/15 10:30:50;;;;;;;20.90;9.50;;;;;;;-1.29;81.28;99806.30;102354;1317;74651;-22
2021/12/15 10:33:23;;;;;;;19.20;8.10;;;;;;;-1.73;82.66;99803.58;102316;1317;73430;-24
2021/12/15 10:35:53;;;;;;;17.80;9.40;;;;;;;-1.82;83.50;99804.11;102345;1317;61172;-25
2021/12/15 10:38:30;;;;;;;18.20;7.70;;;;;;;-1.55;83.44;99796.60;102371;1318;61838;-24
2021/12/15 10:41:23;;;;;;;14.70;7.30;;;;;;;-1.05;81.24;99789.95;102312;1317;75809;-24
2021/12/15 10:43:57;;;;;;;20.60;8.80;;;;;;;-1.18;81.05;99782.90;102384;1317;74600;-24
2021/12/15 10:46:35;;;;;;;21.80;9.70;;;;;;;-1.48;82.18;99781.30;102235;1317;72095;-24
2021/12/15 10:49:11;;;;;;;16.30;7.50;;;;;;;-1.69;83.06;99780.70;102137;1319;61204;-22
2021/12/15 10:51:47;;;;;;;10.70;5.70;;;;;;;-1.85;84.28;99781.00;102256;1317;61825;-24
2021/12/15 10:54:16;;;;;;;15.50;6.20;;;;;;;-1.27;82.73;99779.84;102211;1317;75531;-24
2021/12/15 10:56:54;;;;;;;18.80;8.50;;;;;;;-0.94;81.13;99775.23;102272;1317;76256;-23
2021/12/15 10:59:23;;;;;;;12.80;5.10;;;;;;;-0.92;80.77;99777.05;101950;1314;73040;-25
2021/12/15 11:02:07;;;;;;;20.20;10.20;;;;;;;-1.34;82.25;99776.23;102080;1318;61172;-24
2021/12/15 11:04:47;;;;;;;28.20;11.70;;;;;;;-1.75;84.33;99782.20;102060;1316;61171;-24
2021/12/15 11:07:35;;;;;;;19.40;9.30;;;;;;;-1.89;85.22;99788.05;102085;1317;73558;-24
2021/12/15 11:10:27;;;;;;;17.70;8.50;;;;;;;-1.52;84.31;99787.85;102258;1318;75157;-24
2021/12/15 11:13:01;;;;;;;13.30;6.90;;;;;;;-1.18;82.83;99790.58;102167;1317;74446;-24
2021/12/15 11:15:33;;;;;;;20.60;9.60;;;;;;;-1.17;81.89;99785.97;102152;1318;61188;-24
2021/12/15 11:18:23;;;;;;;27.40;12.30;;;;;;;-1.51;83.03;99778.46;102179;1317;61797;-24
2021/12/15 11:20:55;;;;;;;25.40;11.50;;;;;;;-1.67;83.83;99781.68;102323;1317;75693;-24
2021/12/15 11:23:26;;;;;;;20.70;9.70;;;;;;;-1.68;84.13;99782.02;102193;1317;74459;-24
2021/12/15 11:26:00;;;;;;;27.40;13.10;;;;;;;-1.34;83.04;99783.07;102110;1317;74426;-24
2021/12/15 11:28:35;;;;;;;25.50;10.30;;;;;;;-1.20;82.09;99786.02;101947;1316;61311;-24
2021/12/15 11:31:11;;;;;;;20.80;9.90;;;;;;;-1.24;82.50;99786.09;102307;1314;62064;-24
2021/12/15 11:33:45;;;;;;;21.00;8.60;;;;;;;-1.42;83.08;99789.02;102250;1314;74703;-24
2021/12/15 11:36:44;;;;;;;20.40;9.40;;;;;;;-1.56;83.68;99789.80;102097;1317;73759;-24
2021/12/15 11:39:20;;;;;;;23.10;11.40;;;;;;;-1.67;84.05;99791.38;102174;1317;72766;-24
2021/12/15 11:41:52;;;;;;;11.70;5.90;;;;;;;-1.43;84.04;99790.75;102070;1317;61138;-24
2021/12/15 11:44:21;;;;;;;23.10;9.30;;;;;;;-0.86;81.94;99789.89;102144;1317;62536;-24
2021/12/15 11:46:58;;;;;;;18.30;7.20;;;;;;;-0.89;81.32;99785.86;102330;1310;75924;-24
2021/12/15 11:49:29;;;;;;;21.30;9.90;;;;;;;-1.13;82.15;99782.11;102178;1314;75955;-24
2021/12/15 11:52:12;;;;;;;24.50;10.20;;;;;;;-1.60;83.84;99779.66;102333;1313;74562;-24
2021/12/15 11:54:45;;;;;;;30.60;12.90;;;;;;;-1.87;85.60;99775.24;102344;1313;61552;-24
2021/12/15 11:57:19;;;;;;;19.60;8.50;;;;;;;-1.42;84.48;99776.59;102338;1317;61146;-24
2021/12/15 11:59:50;;;;;;;25.70;11.20;;;;;;;-1.13;83.00;99780.41;102323;1316;74643;-24
2021/12/15 12:02:26;;;;;;;22.20;9.10;;;;;;;-1.02;82.60;99777.96;102244;1314;76269;-24
2021/12/15 12:04:57;;;;;;;18.00;9.10;;;;;;;-1.26;83.26;99778.30;102195;1317;74929;-24
2021/12/15 12:07:29;;;;;;;27.20;11.10;;;;;;;-1.37;83.92;99778.71;102177;1317;61210;-25
2021/12/15 12:10:04;;;;;;;16.40;8.30;;;;;;;-1.43;84.45;99776.96;102254;1313;61842;-26
2021/12/15 12:12:41;;;;;;;28.40;11.80;;;;;;;-1.09;83.37;99779.81;102642;1310;75639;-25
2021/12/15 12:15:16;;;;;;;30.30;12.80;;;;;;;-0.79;82.31;99779.66;102276;1317;76302;-27
2021/12/15 12:17:48;;;;;;;24.80;10.20;;;;;;;-1.19;82.75;99776.79;102118;1313;73435;-26
2021/12/15 12:20:46;;;;;;;25.20;11.20;;;;;;;-1.29;83.81;99778.71;102039;1313;61095;-23
2021/12/15 12:23:21;;;;;;;23.20;10.90;;;;;;;-1.39;84.05;99777.04;102111;1317;61131;-24
2021/12/15 12:25:52;;;;;;;20.40;9.10;;;;;;;-1.48;84.91;99778.59;102370;1314;75650;-26
2021/12/15 12:28:23;;;;;;;22.80;10.10;;;;;;;-0.98;83.39;99776.16;102363;1313;76108;-26
2021/12/15 12:30:54;;;;;;;22.50;9.90;;;;;;;-0.41;81.06;99780.30;102341;1314;74184;-29
2021/12/15 12:33:23;;;;;;;12.90;5.70;;;;;;;-0.57;80.88;99784.27;102265;1316;61286;-26
2021/12/15 12:36:04;;;;;;;22.40;10.10;;;;;;;-0.68;81.02;99783.48;102196;1313;61773;-24
2021/12/15 12:38:35;;;;;;;24.10;10.30;;;;;;;-1.15;82.63;99777.73;102172;1312;75508;-25
2021/12/15 12:41:11;;;;;;;21.30;10.10;;;;;;;-1.33;83.85;99772.83;102235;1313;74083;-24
2021/12/15 12:43:46;;;;;;;18.20;8.10;;;;;;;-1.31;83.94;99775.87;102196;1316;73313;-24
2021/12/15 12:46:22;;;;;;;17.40;9.40;;;;;;;-0.99;82.85;99782.14;102263;1311;61228;-24
2021/12/15 13:01:07;;;;;;;26.40;9.80;;;;;;;-1.28;83.17;99765.56;102269;1313;61272;-24
2021/12/15 13:03:19;;;;;;;23.60;11.20;;;;;;;-0.98;82.18;99763.55;102258;1317;61122;-24
2021/12/15 13:05:52;;;;;;;22.30;10.30;;;;;;;-0.93;81.72;99771.96;102297;1313;75360;-24
2021/12/15 13:08:53;;;;;;;25.30;12.10;;;;;;;-0.82;81.64;99776.17;101974;1317;76120;-24